createdAt,value
2022-10-07T00:00:14.667Z,16.23
2022-10-07T00:01:19.247Z,16.22
2022-10-07T00:02:23.375Z,16.28
2022-10-07T00:03:27.471Z,16.33
2022-10-07T00:04:31.916Z,16.19
2022-10-07T00:05:35.017Z,16.14
2022-10-07T00:06:38.727Z,16.17
2022-10-07T00:07:42.314Z,16.24
2022-10-07T00:08:47.293Z,16.14
2022-10-07T00:09:50.703Z,16.15
2022-10-07T00:10:53.571Z,16.15
2022-10-07T00:11:59.137Z,16.13
2022-10-07T00:13:02.780Z,16.11
2022-10-07T00:14:09.936Z,16.09
2022-10-07T00:15:14.182Z,16.08
2022-10-07T00:16:26.676Z,16.03
2022-10-07T00:17:29.955Z,16.04
2022-10-07T00:18:34.619Z,16.00
2022-10-07T00:19:37.709Z,16.02
2022-10-07T00:20:41.828Z,16.08
2022-10-07T00:21:44.632Z,16.01
2022-10-07T00:22:46.922Z,15.85
2022-10-07T00:23:49.766Z,15.82
2022-10-07T00:24:54.182Z,15.85
2022-10-07T00:25:59.676Z,15.90
2022-10-07T00:27:02.025Z,15.96
2022-10-07T00:28:07.401Z,15.92
2022-10-07T00:29:10.922Z,15.82
2022-10-07T00:30:15.159Z,15.83
2022-10-07T00:31:24.949Z,15.89
2022-10-07T00:32:30.955Z,15.87
2022-10-07T00:33:36.855Z,15.80
2022-10-07T00:34:42.335Z,15.75
2022-10-07T00:35:46.151Z,15.65
2022-10-07T00:36:51.432Z,15.59
2022-10-07T00:37:55.878Z,15.56
2022-10-07T00:39:00.845Z,15.55
2022-10-07T00:40:04.766Z,15.55
2022-10-07T00:41:08.481Z,15.51
2022-10-07T00:42:13.238Z,15.47
2022-10-07T00:43:22.802Z,15.46
2022-10-07T00:44:34.337Z,15.37
2022-10-07T00:45:38.296Z,15.38
2022-10-07T00:46:40.733Z,15.37
2022-10-07T00:47:50.599Z,15.42
2022-10-07T00:48:55.292Z,15.47
2022-10-07T00:50:10.037Z,15.38
2022-10-07T00:51:15.747Z,15.44
2022-10-07T00:52:22.071Z,15.49
2022-10-07T00:53:28.228Z,15.52
2022-10-07T00:54:31.437Z,15.50
2022-10-07T00:55:37.746Z,15.48
2022-10-07T00:56:42.870Z,15.44
2022-10-07T00:57:48.308Z,15.34
2022-10-07T00:58:53.430Z,15.34
2022-10-07T00:59:57.819Z,15.33
2022-10-07T01:01:01.336Z,15.32
2022-10-07T01:02:05.511Z,15.34
2022-10-07T01:03:09.236Z,15.34
2022-10-07T01:04:13.160Z,15.35
2022-10-07T01:05:19.413Z,15.34
2022-10-07T01:06:22.465Z,15.31
2022-10-07T01:07:25.336Z,15.27
2022-10-07T01:08:29.163Z,15.24
2022-10-07T01:09:32.869Z,15.21
2022-10-07T01:10:53.608Z,15.18
2022-10-07T01:12:10.725Z,15.14
2022-10-07T01:13:16.192Z,15.12
2022-10-07T01:14:39.633Z,15.08
2022-10-07T01:15:45.028Z,15.05
2022-10-07T01:17:00.488Z,15.05
2022-10-07T01:18:10.528Z,15.07
2022-10-07T01:19:15.807Z,15.06
2022-10-07T01:20:22.450Z,15.04
2022-10-07T01:21:45.901Z,15.06
2022-10-07T01:22:56.195Z,15.00
2022-10-07T01:24:07.116Z,15.01
2022-10-07T01:25:14.486Z,15.03
2022-10-07T01:26:28.112Z,15.05
2022-10-07T01:27:31.930Z,15.01
2022-10-07T01:28:39.458Z,14.95
2022-10-07T01:29:50.439Z,14.92
2022-10-07T01:30:58.948Z,14.81
2022-10-07T01:32:05.585Z,14.84
2022-10-07T01:33:12.652Z,14.80
2022-10-07T01:34:16.779Z,14.85
2022-10-07T01:35:23.393Z,14.82
2022-10-07T01:36:27.653Z,14.82
2022-10-07T01:37:33.139Z,14.82
2022-10-07T01:38:38.522Z,14.80
2022-10-07T01:39:42.553Z,14.88
2022-10-07T01:40:48.856Z,14.89
2022-10-07T01:41:54.976Z,14.89
2022-10-07T01:42:59.136Z,14.87
2022-10-07T01:44:03.151Z,14.72
2022-10-07T01:45:09.903Z,14.69
2022-10-07T01:46:21.549Z,14.66
2022-10-07T01:47:29.014Z,14.53
2022-10-07T01:48:33.893Z,14.54
2022-10-07T01:49:39.358Z,14.63
2022-10-07T01:50:45.396Z,14.57
2022-10-07T01:51:50.570Z,14.60
2022-10-07T01:52:57.482Z,14.65
2022-10-07T01:54:10.437Z,14.65
2022-10-07T01:55:16.900Z,14.65
2022-10-07T01:56:24.815Z,14.64
2022-10-07T01:57:43.020Z,14.65
2022-10-07T01:58:49.835Z,14.67
2022-10-07T01:59:56.378Z,14.74
2022-10-07T02:01:04.734Z,14.73
2022-10-07T02:02:30.204Z,14.74
2022-10-07T02:03:37.927Z,14.77
2022-10-07T02:05:02.595Z,14.78
2022-10-07T02:06:22.720Z,14.81
2022-10-07T02:07:40.417Z,14.86
2022-10-07T02:08:49.699Z,14.88
2022-10-07T02:10:01.018Z,14.92
2022-10-07T02:11:20.930Z,14.93
2022-10-07T02:12:33.709Z,15.02
2022-10-07T02:13:46.730Z,15.10
2022-10-07T02:14:59.663Z,15.10
2022-10-07T02:16:12.143Z,15.07
2022-10-07T02:17:20.470Z,15.05
2022-10-07T02:18:23.211Z,15.08
2022-10-07T02:19:36.010Z,14.98
2022-10-07T02:20:40.541Z,14.99
2022-10-07T02:21:45.734Z,14.97
2022-10-07T02:22:50.519Z,14.93
2022-10-07T02:23:54.717Z,14.90
2022-10-07T02:25:00.114Z,14.91
2022-10-07T02:26:05.382Z,14.84
2022-10-07T02:27:11.614Z,14.81
2022-10-07T02:28:18.694Z,14.77
2022-10-07T02:29:24.614Z,14.69
2022-10-07T02:30:29.534Z,14.65
2022-10-07T02:31:36.287Z,14.62
2022-10-07T02:32:44.180Z,14.58
2022-10-07T02:33:48.702Z,14.56
2022-10-07T02:34:53.795Z,14.56
2022-10-07T02:36:03.468Z,14.50
2022-10-07T02:37:08.125Z,14.51
2022-10-07T02:38:12.569Z,14.55
2022-10-07T02:39:16.072Z,14.55
2022-10-07T02:40:19.780Z,14.53
2022-10-07T02:41:34.258Z,14.55
2022-10-07T02:42:43.299Z,14.56
2022-10-07T02:43:49.195Z,14.59
2022-10-07T02:44:57.063Z,14.58
2022-10-07T02:46:01.476Z,14.53
2022-10-07T02:47:17.155Z,14.47
2022-10-07T02:48:25.368Z,14.48
2022-10-07T02:49:29.651Z,14.51
2022-10-07T02:50:35.096Z,14.48
2022-10-07T02:51:47.049Z,14.45
2022-10-07T02:52:53.688Z,14.38
2022-10-07T02:53:59.895Z,14.36
2022-10-07T02:55:04.051Z,14.34
2022-10-07T02:56:08.326Z,14.38
2022-10-07T02:57:13.615Z,14.40
2022-10-07T02:58:19.907Z,14.41
2022-10-07T02:59:26.118Z,14.28
2022-10-07T03:00:31.500Z,14.29
2022-10-07T03:01:37.575Z,14.27
2022-10-07T03:02:43.521Z,14.27
2022-10-07T03:03:48.992Z,14.28
2022-10-07T03:04:52.726Z,14.23
2022-10-07T03:05:56.648Z,14.30
2022-10-07T03:07:01.893Z,14.36
2022-10-07T03:08:08.044Z,14.39
2022-10-07T03:09:13.629Z,14.43
2022-10-07T03:10:18.114Z,14.34
2022-10-07T03:11:21.475Z,14.24
2022-10-07T03:12:24.560Z,14.23
2022-10-07T03:13:29.308Z,14.23
2022-10-07T03:14:36.375Z,14.21
2022-10-07T03:15:43.514Z,14.12
2022-10-07T03:16:50.904Z,14.12
2022-10-07T03:17:54.619Z,14.17
2022-10-07T03:18:59.554Z,14.21
2022-10-07T03:20:07.906Z,14.23
2022-10-07T03:21:11.412Z,14.23
2022-10-07T03:22:15.022Z,14.24
2022-10-07T03:23:19.352Z,14.19
2022-10-07T03:24:25.883Z,14.07
2022-10-07T03:25:29.704Z,14.00
2022-10-07T03:26:33.637Z,13.95
2022-10-07T03:27:41.568Z,13.84
2022-10-07T03:28:45.859Z,13.83
2022-10-07T03:29:53.647Z,13.85
2022-10-07T03:30:58.856Z,13.95
2022-10-07T03:32:02.953Z,13.94
2022-10-07T03:33:06.236Z,13.99
2022-10-07T03:34:14.534Z,13.85
2022-10-07T03:35:19.641Z,13.88
2022-10-07T03:36:23.876Z,13.94
2022-10-07T03:37:28.416Z,13.97
2022-10-07T03:38:32.350Z,13.78
2022-10-07T03:39:38.028Z,13.77
2022-10-07T03:40:43.239Z,13.87
2022-10-07T03:41:49.348Z,13.81
2022-10-07T03:42:52.770Z,13.79
2022-10-07T03:43:58.022Z,13.67
2022-10-07T03:45:03.234Z,13.52
2022-10-07T03:46:06.773Z,13.62
2022-10-07T03:47:13.446Z,13.71
2022-10-07T03:48:17.472Z,13.75
2022-10-07T03:49:21.084Z,13.81
2022-10-07T03:50:26.033Z,13.71
2022-10-07T03:51:29.553Z,13.70
2022-10-07T03:52:31.818Z,13.64
2022-10-07T03:54:41.311Z,13.69
2022-10-07T03:55:44.505Z,13.75
2022-10-07T03:56:49.063Z,13.75
2022-10-07T03:57:58.402Z,13.68
2022-10-07T03:58:57.121Z,13.59
2022-10-07T04:00:01.776Z,13.60
2022-10-07T04:01:09.597Z,13.63
2022-10-07T04:02:15.351Z,13.59
2022-10-07T04:03:19.724Z,13.54
2022-10-07T04:04:25.971Z,13.54
2022-10-07T04:05:29.558Z,13.54
2022-10-07T04:06:33.144Z,13.55
2022-10-07T04:07:38.527Z,13.57
2022-10-07T04:08:41.507Z,13.61
2022-10-07T04:09:46.162Z,13.66
2022-10-07T04:10:52.591Z,13.66
2022-10-07T04:11:55.157Z,13.52
2022-10-07T04:12:58.243Z,13.50
2022-10-07T04:14:02.691Z,13.52
2022-10-07T04:15:07.036Z,13.50
2022-10-07T04:16:13.802Z,13.50
2022-10-07T04:17:25.313Z,13.56
2022-10-07T04:18:29.033Z,13.48
2022-10-07T04:19:32.541Z,13.53
2022-10-07T04:20:38.446Z,13.49
2022-10-07T04:21:42.717Z,13.53
2022-10-07T04:22:47.441Z,13.56
2022-10-07T04:23:51.375Z,13.57
2022-10-07T04:25:12.835Z,13.52
2022-10-07T04:26:16.203Z,13.45
2022-10-07T04:27:47.086Z,13.49
2022-10-07T04:28:33.491Z,13.49
2022-10-07T04:29:41.058Z,13.51
2022-10-07T04:30:44.970Z,13.52
2022-10-07T04:31:49.549Z,13.57
2022-10-07T04:32:54.127Z,13.53
2022-10-07T04:33:58.667Z,13.52
2022-10-07T04:35:04.008Z,13.57
2022-10-07T04:36:09.925Z,13.61
2022-10-07T04:37:16.549Z,13.57
2022-10-07T04:38:19.961Z,13.53
2022-10-07T04:39:42.826Z,13.58
2022-10-07T04:40:33.446Z,13.65
2022-10-07T04:41:40.122Z,13.67
2022-10-07T04:43:03.228Z,13.51
2022-10-07T04:44:07.789Z,13.58
2022-10-07T04:45:13.048Z,14.04
2022-10-07T04:46:15.990Z,14.31
2022-10-07T04:47:20.220Z,14.16
2022-10-07T04:48:23.350Z,13.96
2022-10-07T04:49:27.065Z,14.02
2022-10-07T04:50:32.818Z,13.91
2022-10-07T04:51:37.324Z,13.92
2022-10-07T04:52:42.915Z,14.00
2022-10-07T04:53:51.025Z,13.90
2022-10-07T04:54:54.732Z,13.90
2022-10-07T04:55:58.334Z,13.87
2022-10-07T04:57:00.686Z,13.77
2022-10-07T04:58:05.349Z,13.93
2022-10-07T04:59:08.962Z,14.00
2022-10-07T05:00:15.012Z,13.98
2022-10-07T05:01:17.703Z,14.02
2022-10-07T05:02:22.752Z,14.24
2022-10-07T05:03:26.740Z,14.43
2022-10-07T05:04:29.620Z,14.41
2022-10-07T05:05:35.030Z,14.31
2022-10-07T05:06:38.765Z,14.13
2022-10-07T05:07:41.375Z,14.07
2022-10-07T05:08:44.672Z,13.94
2022-10-07T05:09:49.243Z,13.89
2022-10-07T05:10:56.705Z,14.02
2022-10-07T05:12:02.508Z,14.06
2022-10-07T05:13:06.637Z,14.09
2022-10-07T05:14:09.624Z,14.03
2022-10-07T05:15:13.755Z,14.15
2022-10-07T05:16:18.328Z,14.34
2022-10-07T05:17:22.435Z,14.61
2022-10-07T05:18:27.715Z,14.74
2022-10-07T05:19:32.196Z,14.89
2022-10-07T05:20:39.246Z,15.08
2022-10-07T05:21:44.491Z,15.16
2022-10-07T05:22:47.366Z,15.10
2022-10-07T05:23:50.559Z,15.03
2022-10-07T05:24:57.832Z,15.01
2022-10-07T05:26:02.478Z,14.98
2022-10-07T05:27:05.362Z,15.19
2022-10-07T05:28:10.513Z,15.20
2022-10-07T05:29:15.926Z,15.09
2022-10-07T05:30:25.075Z,15.17
2022-10-07T05:31:32.061Z,15.42
2022-10-07T05:32:38.033Z,15.59
2022-10-07T05:33:41.006Z,15.41
2022-10-07T05:34:45.253Z,15.43
2022-10-07T05:35:48.863Z,15.45
2022-10-07T05:36:57.246Z,15.36
2022-10-07T05:38:01.391Z,15.25
2022-10-07T05:39:05.558Z,15.11
2022-10-07T05:40:10.915Z,15.14
2022-10-07T05:41:15.787Z,15.11
2022-10-07T05:42:20.430Z,15.13
2022-10-07T05:43:28.855Z,15.22
2022-10-07T05:44:33.081Z,15.16
2022-10-07T05:45:40.077Z,15.15
2022-10-07T05:46:44.592Z,15.12
2022-10-07T05:47:48.928Z,15.13
2022-10-07T05:48:53.693Z,14.92
2022-10-07T05:49:59.214Z,14.86
2022-10-07T05:51:02.571Z,15.06
2022-10-07T05:52:08.687Z,15.37
2022-10-07T05:53:14.960Z,15.52
2022-10-07T05:54:21.290Z,15.91
2022-10-07T05:55:25.166Z,16.08
2022-10-07T05:56:28.406Z,15.87
2022-10-07T05:57:32.072Z,15.81
2022-10-07T05:58:38.499Z,15.70
2022-10-07T05:59:44.979Z,15.72
2022-10-07T06:01:01.058Z,15.74
2022-10-07T06:02:04.551Z,15.38
2022-10-07T06:03:08.650Z,15.46
2022-10-07T06:04:14.112Z,15.63
2022-10-07T06:05:20.410Z,15.62
2022-10-07T06:06:27.498Z,15.66
2022-10-07T06:07:32.131Z,15.68
2022-10-07T06:08:36.807Z,15.68
2022-10-07T06:09:58.986Z,15.75
2022-10-07T06:11:23.160Z,15.63
2022-10-07T06:12:48.857Z,15.85
2022-10-07T06:13:54.048Z,15.90
2022-10-07T06:14:56.447Z,16.09
2022-10-07T06:16:03.619Z,16.19
2022-10-07T06:17:06.797Z,16.50
2022-10-07T06:18:10.829Z,16.30
2022-10-07T06:19:16.729Z,16.61
2022-10-07T06:20:20.249Z,16.61
2022-10-07T06:21:27.546Z,16.95
2022-10-07T06:22:35.547Z,16.82
2022-10-07T06:23:38.805Z,16.80
2022-10-07T06:24:43.995Z,16.58
2022-10-07T06:25:55.843Z,16.71
2022-10-07T06:27:00.758Z,17.27
2022-10-07T06:28:04.668Z,17.83
2022-10-07T06:29:09.165Z,18.38
2022-10-07T06:30:13.716Z,18.65
2022-10-07T06:31:20.550Z,18.65
2022-10-07T06:32:24.351Z,18.50
2022-10-07T06:33:27.063Z,17.93
2022-10-07T06:34:30.461Z,17.56
2022-10-07T06:35:32.703Z,17.59
2022-10-07T06:36:36.211Z,18.23
2022-10-07T06:37:40.037Z,18.73
2022-10-07T06:38:49.527Z,18.49
2022-10-07T06:39:58.687Z,18.19
2022-10-07T06:41:02.444Z,18.41
2022-10-07T06:42:07.106Z,18.92
2022-10-07T06:43:29.832Z,19.41
2022-10-07T06:44:36.523Z,20.16
2022-10-07T06:45:41.971Z,20.52
2022-10-07T06:46:46.725Z,21.56
2022-10-07T06:47:51.135Z,22.18
2022-10-07T06:48:53.930Z,22.41
2022-10-07T06:49:59.743Z,21.62
2022-10-07T06:51:03.376Z,21.52
2022-10-07T06:52:08.113Z,22.90
2022-10-07T06:53:12.140Z,24.80
2022-10-07T06:54:15.007Z,26.50
2022-10-07T06:55:17.792Z,27.85
2022-10-07T06:56:21.219Z,29.11
2022-10-07T06:57:44.865Z,28.65
2022-10-07T06:58:33.214Z,28.97
2022-10-07T06:59:37.689Z,29.96
2022-10-07T07:25:54.200Z,32.68
2022-10-07T07:27:00.646Z,31.86
2022-10-07T07:28:06.971Z,32.79
2022-10-07T07:29:12.464Z,33.58
2022-10-07T07:30:21.606Z,33.82
2022-10-07T07:31:26.138Z,33.55
2022-10-07T07:32:32.194Z,32.85
2022-10-07T07:33:38.385Z,32.97
2022-10-07T07:34:42.078Z,32.80
2022-10-07T07:35:49.081Z,32.88
2022-10-07T07:36:54.110Z,33.53
2022-10-07T07:38:00.758Z,33.70
2022-10-07T07:39:06.456Z,33.49
2022-10-07T07:40:10.587Z,33.74
2022-10-07T07:41:13.779Z,33.77
2022-10-07T07:42:17.169Z,33.36
2022-10-07T07:43:22.043Z,33.15
2022-10-07T07:44:32.577Z,33.08
2022-10-07T07:45:38.442Z,33.43
2022-10-07T07:46:44.919Z,33.81
2022-10-07T07:47:50.585Z,33.54
2022-10-07T07:48:55.210Z,34.11
2022-10-07T07:49:58.208Z,33.63
2022-10-07T07:51:05.161Z,33.09
2022-10-07T07:52:08.779Z,32.53
2022-10-07T07:53:14.257Z,32.62
2022-10-07T07:54:20.491Z,32.88
2022-10-07T07:55:24.819Z,33.45
2022-10-07T07:56:29.380Z,32.89
2022-10-07T07:57:33.917Z,31.59
2022-10-07T07:58:38.679Z,31.39
2022-10-07T07:59:42.399Z,31.72
2022-10-07T08:00:45.896Z,31.72
2022-10-07T08:01:49.817Z,31.89
2022-10-07T08:02:54.420Z,32.14
2022-10-07T08:03:57.360Z,32.49
2022-10-07T08:05:00.790Z,32.83
2022-10-07T08:06:05.930Z,32.83
2022-10-07T08:07:11.303Z,31.88
2022-10-07T08:08:16.392Z,31.41
2022-10-07T08:09:20.992Z,31.55
2022-10-07T08:10:28.558Z,31.02
2022-10-07T08:11:33.603Z,30.75
2022-10-07T08:12:38.246Z,30.76
2022-10-07T08:13:41.438Z,30.65
2022-10-07T08:14:47.971Z,29.88
2022-10-07T08:15:53.632Z,30.38
2022-10-07T08:16:57.610Z,30.12
2022-10-07T08:18:05.068Z,30.73
2022-10-07T08:19:11.433Z,30.77
2022-10-07T08:20:16.770Z,31.38
2022-10-07T08:21:22.720Z,31.43
2022-10-07T08:22:29.041Z,30.61
2022-10-07T08:23:33.037Z,29.69
2022-10-07T08:24:36.783Z,29.56
2022-10-07T08:25:39.931Z,28.84
2022-10-07T08:26:43.646Z,28.36
2022-10-07T08:27:49.667Z,28.16
2022-10-07T08:28:53.592Z,28.42
2022-10-07T08:29:56.997Z,29.09
2022-10-07T08:31:09.900Z,28.73
2022-10-07T08:32:13.057Z,29.09
2022-10-07T08:33:17.323Z,28.45
2022-10-07T08:34:20.726Z,27.61
2022-10-07T08:35:24.046Z,27.51
2022-10-07T08:36:29.092Z,27.18
2022-10-07T08:37:32.585Z,26.68
2022-10-07T08:38:37.241Z,26.39
2022-10-07T08:39:41.362Z,26.10
2022-10-07T08:40:49.649Z,26.03
2022-10-07T08:41:59.139Z,25.97
2022-10-07T08:43:02.760Z,25.72
2022-10-07T08:44:19.529Z,24.85
2022-10-07T08:45:30.849Z,24.85
2022-10-07T08:46:35.054Z,24.85
2022-10-07T08:47:46.041Z,24.73
2022-10-07T08:48:51.479Z,24.64
2022-10-07T08:50:04.658Z,24.29
2022-10-07T08:51:09.794Z,24.62
2022-10-07T08:52:33.573Z,24.59
2022-10-07T08:53:37.289Z,24.41
2022-10-07T08:54:42.149Z,23.89
2022-10-07T08:55:48.684Z,24.17
2022-10-07T08:56:53.848Z,24.15
2022-10-07T08:58:07.067Z,24.02
2022-10-07T08:59:28.460Z,23.67
2022-10-07T09:00:33.716Z,23.58
2022-10-07T09:01:41.871Z,24.28
2022-10-07T09:03:07.148Z,24.48
2022-10-07T09:04:24.873Z,23.83
2022-10-07T09:05:30.359Z,24.07
2022-10-07T09:06:38.355Z,24.08
2022-10-07T09:07:47.609Z,24.25
2022-10-07T09:08:55.915Z,24.28
2022-10-07T09:10:07.871Z,23.91
2022-10-07T09:11:21.862Z,23.49
2022-10-07T09:12:28.259Z,23.54
2022-10-07T09:13:33.541Z,23.44
2022-10-07T09:14:44.296Z,23.58
2022-10-07T09:16:01.469Z,23.27
2022-10-07T09:17:14.863Z,23.39
2022-10-07T09:18:25.787Z,23.86
2022-10-07T09:19:38.382Z,23.77
2022-10-07T09:20:46.678Z,23.53
2022-10-07T09:21:50.926Z,23.63
2022-10-07T09:22:56.729Z,23.40
2022-10-07T09:24:05.142Z,22.98
2022-10-07T09:25:15.290Z,22.68
2022-10-07T09:26:19.759Z,22.66
2022-10-07T09:27:24.398Z,22.86
2022-10-07T09:28:31.808Z,22.75
2022-10-07T09:29:36.139Z,22.45
2022-10-07T09:30:39.439Z,22.21
2022-10-07T09:31:42.000Z,22.33
2022-10-07T09:32:46.719Z,22.39
2022-10-07T09:33:53.539Z,22.59
2022-10-07T09:34:56.744Z,22.69
2022-10-07T09:36:08.033Z,22.77
2022-10-07T09:37:20.207Z,22.94
2022-10-07T09:38:33.344Z,23.36
2022-10-07T09:39:37.453Z,23.50
2022-10-07T09:41:06.590Z,23.40
2022-10-07T09:42:23.746Z,23.33
2022-10-07T09:43:29.218Z,22.87
2022-10-07T09:44:33.251Z,22.62
2022-10-07T09:45:37.100Z,22.57
2022-10-07T09:46:47.942Z,22.53
2022-10-07T09:47:54.135Z,22.78
2022-10-07T09:48:59.910Z,22.70
2022-10-07T09:50:04.043Z,22.87
2022-10-07T09:51:17.156Z,22.75
2022-10-07T09:52:22.144Z,22.60
2022-10-07T09:53:26.976Z,22.65
2022-10-07T09:54:31.122Z,22.57
2022-10-07T09:55:37.464Z,22.36
2022-10-07T09:56:44.074Z,22.37
2022-10-07T09:57:49.075Z,21.79
2022-10-07T09:58:54.318Z,21.73
2022-10-07T10:00:17.252Z,21.99
2022-10-07T10:01:20.740Z,22.22
2022-10-07T10:02:27.577Z,22.45
2022-10-07T10:03:32.710Z,22.45
2022-10-07T10:04:38.372Z,22.68
2022-10-07T10:06:01.421Z,22.89
2022-10-07T10:07:09.834Z,22.82
2022-10-07T10:08:21.176Z,22.74
2022-10-07T10:09:26.454Z,22.77
2022-10-07T10:10:32.883Z,22.75
2022-10-07T10:11:36.493Z,22.70
2022-10-07T10:12:42.833Z,22.32
2022-10-07T10:13:48.724Z,22.33
2022-10-07T10:14:53.370Z,22.64
2022-10-07T10:15:56.428Z,22.71
2022-10-07T10:16:59.971Z,22.18
2022-10-07T10:18:04.624Z,22.13
2022-10-07T10:19:24.518Z,22.14
2022-10-07T10:20:30.126Z,22.04
2022-10-07T10:21:38.330Z,22.13
2022-10-07T10:22:41.795Z,22.30
2022-10-07T10:23:46.903Z,22.29
2022-10-07T10:25:10.395Z,22.16
2022-10-07T10:26:33.592Z,21.99
2022-10-07T10:27:38.972Z,21.40
2022-10-07T10:28:51.903Z,21.60
2022-10-07T10:29:59.915Z,21.43
2022-10-07T10:31:04.459Z,21.55
2022-10-07T10:32:09.574Z,21.34
2022-10-07T10:33:17.081Z,21.13
2022-10-07T10:34:39.395Z,21.29
2022-10-07T10:35:48.635Z,21.33
2022-10-07T10:36:56.840Z,21.51
2022-10-07T10:38:17.578Z,21.33
2022-10-07T10:39:27.864Z,21.60
2022-10-07T10:40:39.247Z,21.36
2022-10-07T10:41:49.203Z,21.66
2022-10-07T10:42:57.438Z,21.67
2022-10-07T10:44:09.367Z,21.93
2022-10-07T10:45:13.808Z,22.02
2022-10-07T10:46:20.104Z,21.53
2022-10-07T10:47:25.100Z,21.30
2022-10-07T10:48:38.120Z,21.35
2022-10-07T10:49:56.133Z,21.35
2022-10-07T10:51:11.242Z,20.98
2022-10-07T10:52:18.821Z,20.70
2022-10-07T10:53:23.684Z,20.90
2022-10-07T10:54:31.077Z,21.11
2022-10-07T10:55:56.770Z,21.23
2022-10-07T10:57:06.683Z,21.46
2022-10-07T10:58:11.743Z,21.46
2022-10-07T10:59:23.093Z,21.40
2022-10-07T11:00:31.853Z,21.47
2022-10-07T11:01:41.866Z,21.39
2022-10-07T11:02:47.248Z,21.21
2022-10-07T11:03:52.664Z,21.26
2022-10-07T11:05:01.619Z,20.99
2022-10-07T11:06:05.838Z,21.13
2022-10-07T11:07:22.438Z,21.38
2022-10-07T11:08:35.746Z,21.38
2022-10-07T11:09:43.206Z,21.23
2022-10-07T11:10:58.411Z,21.02
2022-10-07T11:12:03.273Z,20.68
2022-10-07T11:13:23.895Z,20.67
2022-10-07T11:14:31.738Z,20.63
2022-10-07T11:15:37.079Z,20.87
2022-10-07T11:16:42.217Z,20.89
2022-10-07T11:17:48.963Z,21.04
2022-10-07T11:18:55.795Z,20.99
2022-10-07T11:20:18.889Z,20.75
2022-10-07T11:21:28.330Z,20.64
2022-10-07T11:22:33.506Z,20.34
2022-10-07T11:23:41.202Z,20.63
2022-10-07T11:24:53.051Z,20.78
2022-10-07T11:26:07.428Z,20.75
2022-10-07T11:27:21.993Z,20.75
2022-10-07T11:28:27.115Z,20.75
2022-10-07T11:29:50.534Z,20.73
2022-10-07T11:30:54.596Z,20.66
2022-10-07T11:32:09.345Z,20.83
2022-10-07T11:33:20.475Z,20.60
2022-10-07T11:34:26.682Z,20.53
2022-10-07T11:35:34.887Z,20.75
2022-10-07T11:36:41.851Z,20.83
2022-10-07T11:37:51.935Z,20.97
2022-10-07T11:38:55.117Z,20.93
2022-10-07T11:39:58.841Z,21.15
2022-10-07T11:41:04.540Z,21.16
2022-10-07T11:42:19.507Z,21.25
2022-10-07T11:43:41.306Z,21.34
2022-10-07T11:44:55.894Z,21.05
2022-10-07T11:46:04.231Z,20.92
2022-10-07T11:47:10.006Z,20.79
2022-10-07T11:48:15.391Z,20.56
2022-10-07T11:49:38.999Z,20.64
2022-10-07T11:50:57.529Z,20.65
2022-10-07T11:52:07.572Z,20.57
2022-10-07T11:53:15.369Z,20.66
2022-10-07T11:54:21.520Z,20.64
2022-10-07T11:55:27.078Z,20.75
2022-10-07T11:56:40.280Z,20.65
2022-10-07T11:57:44.430Z,20.25
2022-10-07T11:58:50.743Z,20.40
2022-10-07T12:00:02.238Z,20.34
2022-10-07T12:01:29.507Z,20.42
2022-10-07T12:02:33.841Z,20.42
2022-10-07T12:03:41.007Z,20.52
2022-10-07T12:04:43.270Z,20.60
2022-10-07T12:05:54.607Z,20.49
2022-10-07T12:07:19.316Z,20.50
2022-10-07T12:08:26.257Z,20.43
2022-10-07T12:09:48.365Z,20.45
2022-10-07T12:10:53.008Z,20.46
2022-10-07T12:11:57.558Z,20.47
2022-10-07T12:13:02.423Z,20.50
2022-10-07T12:14:25.468Z,20.52
2022-10-07T12:15:42.544Z,20.46
2022-10-07T12:16:55.236Z,20.47
2022-10-07T12:18:06.193Z,20.50
2022-10-07T12:19:13.005Z,20.68
2022-10-07T12:20:38.810Z,20.66
2022-10-07T12:21:59.405Z,20.64
2022-10-07T12:23:08.120Z,20.55
2022-10-07T12:24:13.412Z,20.79
2022-10-07T12:26:39.001Z,20.76
2022-10-07T12:27:47.455Z,20.62
2022-10-07T12:28:52.592Z,20.59
2022-10-07T12:29:59.771Z,20.34
2022-10-07T12:31:07.924Z,20.38
2022-10-07T12:32:32.394Z,20.53
2022-10-07T12:33:37.424Z,20.30
2022-10-07T12:34:46.041Z,19.81
2022-10-07T12:35:54.535Z,19.88
2022-10-07T12:36:59.637Z,20.00
2022-10-07T12:38:20.885Z,20.32
2022-10-07T12:39:29.075Z,20.60
2022-10-07T12:40:34.279Z,20.74
2022-10-07T12:41:41.230Z,20.58
2022-10-07T12:42:48.454Z,20.50
2022-10-07T12:44:13.320Z,20.48
2022-10-07T12:45:16.501Z,20.63
2022-10-07T12:46:21.715Z,20.65
2022-10-07T12:47:30.315Z,20.57
2022-10-07T12:48:35.695Z,20.47
2022-10-07T12:49:43.262Z,20.28
2022-10-07T12:50:48.346Z,20.33
2022-10-07T12:51:53.302Z,20.36
2022-10-07T12:52:58.270Z,20.56
2022-10-07T12:54:01.982Z,20.41
2022-10-07T12:55:11.446Z,20.13
2022-10-07T12:56:17.037Z,20.29
2022-10-07T12:57:22.107Z,20.13
2022-10-07T12:58:52.352Z,20.25
2022-10-07T13:00:10.780Z,20.12
2022-10-07T13:01:25.358Z,19.86
2022-10-07T13:02:47.703Z,20.19
2022-10-07T13:04:07.276Z,20.30
2022-10-07T13:05:28.706Z,20.29
2022-10-07T13:06:33.914Z,20.25
2022-10-07T13:07:56.122Z,20.18
2022-10-07T13:09:19.054Z,20.31
2022-10-07T13:10:23.698Z,20.33
2022-10-07T13:11:44.322Z,20.48
2022-10-07T13:12:51.702Z,20.39
2022-10-07T13:13:56.471Z,20.35
2022-10-07T13:15:16.689Z,20.21
2022-10-07T13:16:25.290Z,19.90
2022-10-07T13:17:35.073Z,19.96
2022-10-07T13:18:43.590Z,20.00
2022-10-07T13:19:57.687Z,20.12
2022-10-07T13:21:03.041Z,20.11
2022-10-07T13:22:18.558Z,19.97
2022-10-07T13:23:27.041Z,20.05
2022-10-07T13:24:30.348Z,19.84
2022-10-07T13:25:33.773Z,19.81
2022-10-07T13:26:38.866Z,19.72
2022-10-07T13:27:43.080Z,19.64
2022-10-07T13:28:51.589Z,19.88
2022-10-07T13:29:57.018Z,20.04
2022-10-07T13:31:02.265Z,20.15
2022-10-07T13:32:07.296Z,19.94
2022-10-07T13:33:17.631Z,19.92
2022-10-07T13:34:21.134Z,19.92
2022-10-07T13:35:34.007Z,19.91
2022-10-07T13:36:41.837Z,19.82
2022-10-07T13:37:46.589Z,19.86
2022-10-07T13:38:50.511Z,19.93
2022-10-07T13:39:56.833Z,20.00
2022-10-07T13:41:19.795Z,20.15
2022-10-07T13:42:24.305Z,19.98
2022-10-07T13:43:29.153Z,19.94
2022-10-07T13:44:33.135Z,19.76
2022-10-07T13:45:43.830Z,19.78
2022-10-07T13:46:52.015Z,19.70
2022-10-07T13:47:59.289Z,19.84
2022-10-07T13:49:04.158Z,19.89
2022-10-07T13:50:08.613Z,19.82
2022-10-07T13:51:16.796Z,19.92
2022-10-07T13:52:31.923Z,20.05
2022-10-07T13:53:38.429Z,20.07
2022-10-07T13:54:43.271Z,20.11
2022-10-07T13:55:48.105Z,19.97
2022-10-07T13:56:52.606Z,19.90
2022-10-07T13:57:58.088Z,19.84
2022-10-07T13:59:01.291Z,19.82
2022-10-07T14:00:04.785Z,19.85
2022-10-07T14:01:10.794Z,19.89
2022-10-07T14:02:16.185Z,19.94
2022-10-07T14:03:20.511Z,19.98
2022-10-07T14:04:29.868Z,19.96
2022-10-07T14:05:32.953Z,19.96
2022-10-07T14:06:38.028Z,19.96
2022-10-07T14:07:41.454Z,19.89
2022-10-07T14:08:47.647Z,19.70
2022-10-07T14:09:53.042Z,19.72
2022-10-07T14:11:04.172Z,19.59
2022-10-07T14:12:09.246Z,19.62
2022-10-07T14:13:14.351Z,19.66
2022-10-07T14:14:22.206Z,19.58
2022-10-07T14:15:27.791Z,19.62
2022-10-07T14:16:31.450Z,19.35
2022-10-07T14:17:38.012Z,19.27
2022-10-07T14:18:43.114Z,19.40
2022-10-07T14:19:49.435Z,19.47
2022-10-07T14:20:53.566Z,19.45
2022-10-07T14:22:00.463Z,19.37
2022-10-07T14:23:08.939Z,19.33
2022-10-07T14:24:12.266Z,19.27
2022-10-07T14:25:22.631Z,19.08
2022-10-07T14:26:28.906Z,19.20
2022-10-07T14:27:43.332Z,19.22
2022-10-07T14:28:46.988Z,19.20
2022-10-07T14:29:52.428Z,19.23
2022-10-07T14:31:29.678Z,19.19
2022-10-07T14:32:54.705Z,19.11
2022-10-07T14:34:32.656Z,19.12
2022-10-07T14:35:41.171Z,19.11
2022-10-07T14:37:06.618Z,19.13
2022-10-07T14:38:26.205Z,19.04
2022-10-07T14:39:34.104Z,18.92
2022-10-07T14:40:37.610Z,18.91
2022-10-07T14:41:39.965Z,18.89
2022-10-07T14:42:43.768Z,18.91
2022-10-07T14:43:47.831Z,18.84
2022-10-07T14:44:52.238Z,18.63
2022-10-07T14:45:55.350Z,18.67
2022-10-07T14:47:11.173Z,18.73
2022-10-07T14:48:14.395Z,18.76
2022-10-07T14:49:18.777Z,18.75
2022-10-07T14:50:22.655Z,18.68
2022-10-07T14:51:29.151Z,18.64
2022-10-07T14:52:34.339Z,18.45
2022-10-07T14:53:41.810Z,18.39
2022-10-07T14:54:44.991Z,18.33
2022-10-07T14:55:47.986Z,18.34